Terminal Aerodrome Forecast
Issued by NWS North Platte, NE

Home | Current Version | Previous Version | Text Only | Print | Product List | Glossary On
Versions: 1 2 3 4 5 6 7 8 9 10 11 12 13 14 15 16 17 18 19
000
FTUS43 KLBF 270520
TAFLBF
TAF
KLBF 270520Z 2706/2806 11006KT P6SM SKC
     FM270900 13010KT P6SM OVC035
     FM271100 13009KT 2SM BR OVC025
      TEMPO 2711/2714 OVC015
     FM271600 15012G18KT P6SM SCT015 SCT200
     FM271800 16016G24KT P6SM BKN200
     FM280000 16014KT P6SM BKN200 PROB30 2800/2803 P6SM TS BKN050CB=

USA.gov is the U.S. government's official web portal to all federal, state and local government web resources and services.